sensor_id;sensor_type;location;lat;lon;timestamp;temperature;humidity
45715;DHT22;31430;61.646;24.704;2023-05-14T00:00:43;5.00;99.90
45715;DHT22;31430;61.646;24.704;2023-05-14T00:03:09;5.00;99.90
45715;DHT22;31430;61.646;24.704;2023-05-14T00:20:44;4.70;99.90
45715;DHT22;31430;61.646;24.704;2023-05-14T00:23:10;4.70;99.90
45715;DHT22;31430;61.646;24.704;2023-05-14T00:25:36;4.60;99.90
45715;DHT22;31430;61.646;24.704;2023-05-14T00:28:02;4.60;99.90
45715;DHT22;31430;61.646;24.704;2023-05-14T00:30:28;4.60;99.90
45715;DHT22;31430;61.646;24.704;2023-05-14T00:32:54;4.60;99.90
45715;DHT22;31430;61.646;24.704;2023-05-14T00:35:20;4.60;99.90
45715;DHT22;31430;61.646;24.704;2023-05-14T00:37:46;4.50;99.90
45715;DHT22;31430;61.646;24.704;2023-05-14T00:40:12;4.50;99.90
45715;DHT22;31430;61.646;24.704;2023-05-14T00:42:38;4.50;99.90
45715;DHT22;31430;61.646;24.704;2023-05-14T00:45:05;4.50;99.90
45715;DHT22;31430;61.646;24.704;2023-05-14T00:47:31;4.50;99.90
45715;DHT22;31430;61.646;24.704;2023-05-14T00:49:59;4.50;99.90
45715;DHT22;31430;61.646;24.704;2023-05-14T00:52:25;4.50;99.90
45715;DHT22;31430;61.646;24.704;2023-05-14T00:54:52;4.50;99.90
45715;DHT22;31430;61.646;24.704;2023-05-14T00:57:18;4.60;99.90
45715;DHT22;31430;61.646;24.704;2023-05-14T00:59:44;4.50;99.90
45715;DHT22;31430;61.646;24.704;2023-05-14T01:02:10;4.50;99.90
45715;DHT22;31430;61.646;24.704;2023-05-14T01:04:36;4.50;99.90
45715;DHT22;31430;61.646;24.704;2023-05-14T01:07:29;4.40;99.90
45715;DHT22;31430;61.646;24.704;2023-05-14T01:10:02;4.30;99.90
45715;DHT22;31430;61.646;24.704;2023-05-14T01:13:08;4.20;99.90
45715;DHT22;31430;61.646;24.704;2023-05-14T01:15:33;4.10;99.90
45715;DHT22;31430;61.646;24.704;2023-05-14T01:18:08;4.10;99.90
45715;DHT22;31430;61.646;24.704;2023-05-14T01:20:35;4.10;99.90
45715;DHT22;31430;61.646;24.704;2023-05-14T01:23:01;4.00;99.90
45715;DHT22;31430;61.646;24.704;2023-05-14T01:25:29;4.00;99.90
45715;DHT22;31430;61.646;24.704;2023-05-14T01:28:02;4.00;99.90
45715;DHT22;31430;61.646;24.704;2023-05-14T01:30:36;4.10;99.90
45715;DHT22;31430;61.646;24.704;2023-05-14T01:33:05;4.20;99.90
45715;DHT22;31430;61.646;24.704;2023-05-14T01:35:32;4.30;99.90
45715;DHT22;31430;61.646;24.704;2023-05-14T01:38:04;4.20;99.90
45715;DHT22;31430;61.646;24.704;2023-05-14T01:40:31;4.10;99.90
45715;DHT22;31430;61.646;24.704;2023-05-14T01:42:59;3.90;99.90
45715;DHT22;31430;61.646;24.704;2023-05-14T01:45:25;3.90;99.90
45715;DHT22;31430;61.646;24.704;2023-05-14T01:47:51;3.90;99.90
45715;DHT22;31430;61.646;24.704;2023-05-14T01:50:17;3.80;99.90
45715;DHT22;31430;61.646;24.704;2023-05-14T01:52:43;3.90;99.90
45715;DHT22;31430;61.646;24.704;2023-05-14T01:55:09;3.90;99.90
45715;DHT22;31430;61.646;24.704;2023-05-14T01:57:34;3.90;99.90
45715;DHT22;31430;61.646;24.704;2023-05-14T02:00:00;4.00;99.90
45715;DHT22;31430;61.646;24.704;2023-05-14T02:02:26;4.10;99.90
45715;DHT22;31430;61.646;24.704;2023-05-14T02:04:52;4.10;99.90
45715;DHT22;31430;61.646;24.704;2023-05-14T02:07:17;4.10;99.90
45715;DHT22;31430;61.646;24.704;2023-05-14T02:09:43;4.20;99.90
45715;DHT22;31430;61.646;24.704;2023-05-14T02:12:09;4.20;99.90
45715;DHT22;31430;61.646;24.704;2023-05-14T02:14:36;4.30;99.90
45715;DHT22;31430;61.646;24.704;2023-05-14T02:17:01;4.30;99.90
45715;DHT22;31430;61.646;24.704;2023-05-14T02:19:28;4.30;99.90
45715;DHT22;31430;61.646;24.704;2023-05-14T02:21:54;4.20;99.90
45715;DHT22;31430;61.646;24.704;2023-05-14T02:24:20;4.20;99.90
45715;DHT22;31430;61.646;24.704;2023-05-14T02:26:46;4.20;99.90
45715;DHT22;31430;61.646;24.704;2023-05-14T02:29:12;4.20;99.90
45715;DHT22;31430;61.646;24.704;2023-05-14T02:31:37;4.20;99.90
45715;DHT22;31430;61.646;24.704;2023-05-14T02:34:04;4.30;99.90
45715;DHT22;31430;61.646;24.704;2023-05-14T02:36:33;4.40;99.90
45715;DHT22;31430;61.646;24.704;2023-05-14T02:38:58;4.30;99.90
45715;DHT22;31430;61.646;24.704;2023-05-14T02:41:25;4.30;99.90
45715;DHT22;31430;61.646;24.704;2023-05-14T02:43:52;4.40;99.90
45715;DHT22;31430;61.646;24.704;2023-05-14T02:46:18;4.70;99.90
45715;DHT22;31430;61.646;24.704;2023-05-14T02:48:44;4.70;99.90
45715;DHT22;31430;61.646;24.704;2023-05-14T02:51:09;4.70;99.90
45715;DHT22;31430;61.646;24.704;2023-05-14T02:53:35;4.80;99.90
45715;DHT22;31430;61.646;24.704;2023-05-14T02:56:01;5.00;99.90
45715;DHT22;31430;61.646;24.704;2023-05-14T02:58:27;5.30;99.90
45715;DHT22;31430;61.646;24.704;2023-05-14T03:00:52;5.50;99.90
45715;DHT22;31430;61.646;24.704;2023-05-14T03:03:18;5.60;99.90
45715;DHT22;31430;61.646;24.704;2023-05-14T03:05:44;5.80;99.90
45715;DHT22;31430;61.646;24.704;2023-05-14T03:08:10;5.90;99.90
45715;DHT22;31430;61.646;24.704;2023-05-14T03:10:36;6.00;99.90
45715;DHT22;31430;61.646;24.704;2023-05-14T03:13:01;6.10;99.90
45715;DHT22;31430;61.646;24.704;2023-05-14T03:15:27;6.20;99.90
45715;DHT22;31430;61.646;24.704;2023-05-14T03:17:53;6.30;99.90
45715;DHT22;31430;61.646;24.704;2023-05-14T03:20:19;6.50;99.90
45715;DHT22;31430;61.646;24.704;2023-05-14T03:22:45;6.70;99.90
45715;DHT22;31430;61.646;24.704;2023-05-14T03:25:11;7.00;99.90
45715;DHT22;31430;61.646;24.704;2023-05-14T03:27:36;7.20;99.90
45715;DHT22;31430;61.646;24.704;2023-05-14T03:30:03;7.30;99.90
45715;DHT22;31430;61.646;24.704;2023-05-14T03:32:28;7.30;99.90
45715;DHT22;31430;61.646;24.704;2023-05-14T03:34:54;7.50;99.90
45715;DHT22;31430;61.646;24.704;2023-05-14T03:37:20;7.50;99.90
45715;DHT22;31430;61.646;24.704;2023-05-14T03:39:46;7.70;99.90
45715;DHT22;31430;61.646;24.704;2023-05-14T03:42:12;7.80;99.90
45715;DHT22;31430;61.646;24.704;2023-05-14T03:44:37;7.90;99.90
45715;DHT22;31430;61.646;24.704;2023-05-14T03:47:03;7.90;99.90
45715;DHT22;31430;61.646;24.704;2023-05-14T03:49:29;7.90;99.90
45715;DHT22;31430;61.646;24.704;2023-05-14T03:51:55;8.20;99.90
45715;DHT22;31430;61.646;24.704;2023-05-14T03:54:21;8.50;99.90
45715;DHT22;31430;61.646;24.704;2023-05-14T03:56:47;8.60;99.90
45715;DHT22;31430;61.646;24.704;2023-05-14T03:59:13;8.80;99.90
45715;DHT22;31430;61.646;24.704;2023-05-14T04:01:38;9.00;99.90
45715;DHT22;31430;61.646;24.704;2023-05-14T04:04:04;9.10;99.90
45715;DHT22;31430;61.646;24.704;2023-05-14T04:06:31;9.30;99.90
45715;DHT22;31430;61.646;24.704;2023-05-14T04:08:57;9.40;99.90
45715;DHT22;31430;61.646;24.704;2023-05-14T04:11:23;9.60;99.90
45715;DHT22;31430;61.646;24.704;2023-05-14T04:13:48;9.70;99.90
45715;DHT22;31430;61.646;24.704;2023-05-14T04:16:14;9.90;99.90
45715;DHT22;31430;61.646;24.704;2023-05-14T04:18:40;10.00;99.90
45715;DHT22;31430;61.646;24.704;2023-05-14T04:21:05;10.10;99.90
45715;DHT22;31430;61.646;24.704;2023-05-14T04:23:31;10.10;99.90
45715;DHT22;31430;61.646;24.704;2023-05-14T04:25:57;10.20;99.90
45715;DHT22;31430;61.646;24.704;2023-05-14T04:28:23;10.30;99.90
45715;DHT22;31430;61.646;24.704;2023-05-14T04:30:49;10.50;99.90
45715;DHT22;31430;61.646;24.704;2023-05-14T04:33:15;10.70;99.90
45715;DHT22;31430;61.646;24.704;2023-05-14T04:35:41;10.80;99.90
45715;DHT22;31430;61.646;24.704;2023-05-14T04:38:06;11.10;99.90
45715;DHT22;31430;61.646;24.704;2023-05-14T04:40:34;11.10;99.90
45715;DHT22;31430;61.646;24.704;2023-05-14T04:43:00;11.40;99.90
45715;DHT22;31430;61.646;24.704;2023-05-14T04:45:25;11.60;99.90
45715;DHT22;31430;61.646;24.704;2023-05-14T04:47:51;11.60;99.90
45715;DHT22;31430;61.646;24.704;2023-05-14T04:50:17;11.90;99.90
45715;DHT22;31430;61.646;24.704;2023-05-14T04:52:43;11.90;99.90
45715;DHT22;31430;61.646;24.704;2023-05-14T04:55:09;12.20;99.90
45715;DHT22;31430;61.646;24.704;2023-05-14T04:57:34;12.40;99.90
45715;DHT22;31430;61.646;24.704;2023-05-14T05:00:00;12.50;99.90
45715;DHT22;31430;61.646;24.704;2023-05-14T05:02:26;12.50;99.90
45715;DHT22;31430;61.646;24.704;2023-05-14T05:04:52;12.40;99.90
45715;DHT22;31430;61.646;24.704;2023-05-14T05:07:17;12.30;99.90
45715;DHT22;31430;61.646;24.704;2023-05-14T05:09:43;12.50;99.90
45715;DHT22;31430;61.646;24.704;2023-05-14T05:12:09;12.80;99.90
45715;DHT22;31430;61.646;24.704;2023-05-14T05:14:34;12.90;99.90
45715;DHT22;31430;61.646;24.704;2023-05-14T05:17:00;12.90;99.90
45715;DHT22;31430;61.646;24.704;2023-05-14T05:19:26;13.20;99.90
45715;DHT22;31430;61.646;24.704;2023-05-14T05:21:51;13.30;99.90
45715;DHT22;31430;61.646;24.704;2023-05-14T05:24:17;13.40;99.90
45715;DHT22;31430;61.646;24.704;2023-05-14T05:26:43;13.70;99.90
45715;DHT22;31430;61.646;24.704;2023-05-14T05:29:08;13.90;99.80
45715;DHT22;31430;61.646;24.704;2023-05-14T05:31:34;14.00;98.10
45715;DHT22;31430;61.646;24.704;2023-05-14T05:34:01;14.10;96.00
45715;DHT22;31430;61.646;24.704;2023-05-14T05:36:27;14.20;95.60
45715;DHT22;31430;61.646;24.704;2023-05-14T05:38:54;14.40;94.80
45715;DHT22;31430;61.646;24.704;2023-05-14T05:41:20;14.60;94.40
45715;DHT22;31430;61.646;24.704;2023-05-14T05:43:46;14.60;93.20
45715;DHT22;31430;61.646;24.704;2023-05-14T05:46:12;14.60;92.10
45715;DHT22;31430;61.646;24.704;2023-05-14T05:48:37;14.80;91.70
45715;DHT22;31430;61.646;24.704;2023-05-14T05:51:03;15.00;91.60
45715;DHT22;31430;61.646;24.704;2023-05-14T05:53:29;15.30;89.90
45715;DHT22;31430;61.646;24.704;2023-05-14T05:55:55;15.50;85.30
45715;DHT22;31430;61.646;24.704;2023-05-14T05:58:20;15.80;84.80
45715;DHT22;31430;61.646;24.704;2023-05-14T06:00:46;15.80;87.10
45715;DHT22;31430;61.646;24.704;2023-05-14T06:03:12;15.90;85.90
45715;DHT22;31430;61.646;24.704;2023-05-14T06:05:38;16.10;82.40
45715;DHT22;31430;61.646;24.704;2023-05-14T06:08:05;16.10;81.70
45715;DHT22;31430;61.646;24.704;2023-05-14T06:10:31;16.20;84.20
45715;DHT22;31430;61.646;24.704;2023-05-14T06:12:56;16.40;79.10
45715;DHT22;31430;61.646;24.704;2023-05-14T06:15:22;16.50;79.00
45715;DHT22;31430;61.646;24.704;2023-05-14T06:17:48;16.70;78.10
45715;DHT22;31430;61.646;24.704;2023-05-14T06:20:14;16.80;78.80
45715;DHT22;31430;61.646;24.704;2023-05-14T06:22:39;17.00;79.50
45715;DHT22;31430;61.646;24.704;2023-05-14T06:25:05;17.10;72.10
45715;DHT22;31430;61.646;24.704;2023-05-14T06:27:31;17.10;73.40
45715;DHT22;31430;61.646;24.704;2023-05-14T06:29:57;17.20;72.30
45715;DHT22;31430;61.646;24.704;2023-05-14T06:32:23;17.40;69.40
45715;DHT22;31430;61.646;24.704;2023-05-14T06:34:49;17.60;68.70
45715;DHT22;31430;61.646;24.704;2023-05-14T06:37:14;17.70;67.40
45715;DHT22;31430;61.646;24.704;2023-05-14T06:39:40;17.70;65.80
45715;DHT22;31430;61.646;24.704;2023-05-14T06:42:12;17.80;65.90
45715;DHT22;31430;61.646;24.704;2023-05-14T06:44:38;17.90;64.80
45715;DHT22;31430;61.646;24.704;2023-05-14T06:47:03;18.10;63.70
45715;DHT22;31430;61.646;24.704;2023-05-14T06:49:33;18.20;63.50
45715;DHT22;31430;61.646;24.704;2023-05-14T06:51:59;18.20;62.10
45715;DHT22;31430;61.646;24.704;2023-05-14T06:54:25;18.30;62.50
45715;DHT22;31430;61.646;24.704;2023-05-14T06:56:50;18.40;61.30
45715;DHT22;31430;61.646;24.704;2023-05-14T06:59:16;18.60;61.20
45715;DHT22;31430;61.646;24.704;2023-05-14T07:01:42;18.60;61.10
45715;DHT22;31430;61.646;24.704;2023-05-14T07:04:08;18.70;62.30
45715;DHT22;31430;61.646;24.704;2023-05-14T07:06:33;18.90;60.30
45715;DHT22;31430;61.646;24.704;2023-05-14T07:09:00;18.90;56.60
45715;DHT22;31430;61.646;24.704;2023-05-14T07:11:26;19.00;53.60
45715;DHT22;31430;61.646;24.704;2023-05-14T07:13:52;19.10;51.70
45715;DHT22;31430;61.646;24.704;2023-05-14T07:16:17;19.10;51.10
45715;DHT22;31430;61.646;24.704;2023-05-14T07:18:44;19.20;53.60
45715;DHT22;31430;61.646;24.704;2023-05-14T07:21:10;19.30;54.70
45715;DHT22;31430;61.646;24.704;2023-05-14T07:23:36;19.40;56.10
45715;DHT22;31430;61.646;24.704;2023-05-14T07:26:04;19.60;58.00
45715;DHT22;31430;61.646;24.704;2023-05-14T07:28:30;19.60;60.40
45715;DHT22;31430;61.646;24.704;2023-05-14T07:30:56;19.70;56.90
45715;DHT22;31430;61.646;24.704;2023-05-14T07:33:22;19.60;58.60
45715;DHT22;31430;61.646;24.704;2023-05-14T07:35:48;19.80;56.40
45715;DHT22;31430;61.646;24.704;2023-05-14T07:38:14;19.90;55.60
45715;DHT22;31430;61.646;24.704;2023-05-14T07:40:40;20.00;58.00
45715;DHT22;31430;61.646;24.704;2023-05-14T07:43:06;20.10;53.60
45715;DHT22;31430;61.646;24.704;2023-05-14T07:45:31;20.20;56.60
45715;DHT22;31430;61.646;24.704;2023-05-14T07:47:57;20.20;52.70
45715;DHT22;31430;61.646;24.704;2023-05-14T07:50:23;20.40;52.40
45715;DHT22;31430;61.646;24.704;2023-05-14T07:52:48;20.50;51.30
45715;DHT22;31430;61.646;24.704;2023-05-14T07:55:14;20.60;51.70
45715;DHT22;31430;61.646;24.704;2023-05-14T07:57:40;20.60;56.80
45715;DHT22;31430;61.646;24.704;2023-05-14T08:00:06;20.60;53.90
45715;DHT22;31430;61.646;24.704;2023-05-14T08:02:35;20.70;54.00
45715;DHT22;31430;61.646;24.704;2023-05-14T08:05:01;20.80;51.40
45715;DHT22;31430;61.646;24.704;2023-05-14T08:07:26;20.80;52.90
45715;DHT22;31430;61.646;24.704;2023-05-14T08:09:54;20.70;51.90
45715;DHT22;31430;61.646;24.704;2023-05-14T08:12:20;20.90;50.20
45715;DHT22;31430;61.646;24.704;2023-05-14T08:14:46;21.00;49.60
45715;DHT22;31430;61.646;24.704;2023-05-14T08:17:11;21.00;50.20
45715;DHT22;31430;61.646;24.704;2023-05-14T08:19:37;21.20;52.30
45715;DHT22;31430;61.646;24.704;2023-05-14T08:22:03;21.10;52.80
45715;DHT22;31430;61.646;24.704;2023-05-14T08:24:30;21.10;50.90
45715;DHT22;31430;61.646;24.704;2023-05-14T08:26:56;21.00;50.70
45715;DHT22;31430;61.646;24.704;2023-05-14T08:29:21;21.10;50.70
45715;DHT22;31430;61.646;24.704;2023-05-14T08:31:48;21.00;51.80
45715;DHT22;31430;61.646;24.704;2023-05-14T08:34:15;20.70;52.00
45715;DHT22;31430;61.646;24.704;2023-05-14T08:36:41;20.50;53.30
45715;DHT22;31430;61.646;24.704;2023-05-14T08:39:07;20.30;55.60
45715;DHT22;31430;61.646;24.704;2023-05-14T08:41:32;20.50;52.90
45715;DHT22;31430;61.646;24.704;2023-05-14T08:44:17;20.80;50.50
45715;DHT22;31430;61.646;24.704;2023-05-14T08:46:43;20.80;51.50
45715;DHT22;31430;61.646;24.704;2023-05-14T08:49:48;20.60;54.00
45715;DHT22;31430;61.646;24.704;2023-05-14T08:52:10;20.30;52.00
45715;DHT22;31430;61.646;24.704;2023-05-14T08:54:36;20.00;57.50
45715;DHT22;31430;61.646;24.704;2023-05-14T08:57:08;20.20;57.30
45715;DHT22;31430;61.646;24.704;2023-05-14T08:59:34;20.30;54.30
45715;DHT22;31430;61.646;24.704;2023-05-14T09:02:01;20.00;54.00
45715;DHT22;31430;61.646;24.704;2023-05-14T09:04:29;19.70;57.60
45715;DHT22;31430;61.646;24.704;2023-05-14T09:06:55;19.60;57.60
45715;DHT22;31430;61.646;24.704;2023-05-14T09:09:22;19.60;57.10
45715;DHT22;31430;61.646;24.704;2023-05-14T09:11:49;19.70;58.80
45715;DHT22;31430;61.646;24.704;2023-05-14T09:14:15;20.10;57.60
45715;DHT22;31430;61.646;24.704;2023-05-14T09:16:44;20.40;52.80
45715;DHT22;31430;61.646;24.704;2023-05-14T09:19:11;20.60;55.00
45715;DHT22;31430;61.646;24.704;2023-05-14T09:21:37;21.10;52.40
45715;DHT22;31430;61.646;24.704;2023-05-14T09:24:03;20.90;51.40
45715;DHT22;31430;61.646;24.704;2023-05-14T09:26:31;20.70;49.40
45715;DHT22;31430;61.646;24.704;2023-05-14T09:28:58;20.60;51.10
45715;DHT22;31430;61.646;24.704;2023-05-14T09:31:31;20.40;53.40
45715;DHT22;31430;61.646;24.704;2023-05-14T09:33:57;20.30;55.40
45715;DHT22;31430;61.646;24.704;2023-05-14T09:36:24;20.20;57.30
45715;DHT22;31430;61.646;24.704;2023-05-14T09:39:02;20.30;56.60
45715;DHT22;31430;61.646;24.704;2023-05-14T09:41:28;20.20;55.10
45715;DHT22;31430;61.646;24.704;2023-05-14T09:43:53;20.10;54.60
45715;DHT22;31430;61.646;24.704;2023-05-14T09:46:21;20.40;53.90
45715;DHT22;31430;61.646;24.704;2023-05-14T09:48:48;20.50;54.70
45715;DHT22;31430;61.646;24.704;2023-05-14T09:51:14;20.60;54.00
45715;DHT22;31430;61.646;24.704;2023-05-14T09:53:42;20.80;53.40
45715;DHT22;31430;61.646;24.704;2023-05-14T09:56:08;20.90;52.10
45715;DHT22;31430;61.646;24.704;2023-05-14T09:58:34;20.80;53.40
45715;DHT22;31430;61.646;24.704;2023-05-14T10:01:00;20.70;53.20
45715;DHT22;31430;61.646;24.704;2023-05-14T10:03:29;20.60;52.80
45715;DHT22;31430;61.646;24.704;2023-05-14T10:05:59;20.60;51.10
45715;DHT22;31430;61.646;24.704;2023-05-14T10:08:33;21.10;48.30
45715;DHT22;31430;61.646;24.704;2023-05-14T10:11:03;21.40;47.90
45715;DHT22;31430;61.646;24.704;2023-05-14T10:13:38;21.50;49.40
45715;DHT22;31430;61.646;24.704;2023-05-14T10:16:15;21.60;49.90
45715;DHT22;31430;61.646;24.704;2023-05-14T10:18:45;21.50;50.20
45715;DHT22;31430;61.646;24.704;2023-05-14T10:21:13;21.40;52.30
45715;DHT22;31430;61.646;24.704;2023-05-14T10:23:40;21.00;52.60
45715;DHT22;31430;61.646;24.704;2023-05-14T10:26:06;20.90;52.70
45715;DHT22;31430;61.646;24.704;2023-05-14T10:28:33;20.90;52.30
45715;DHT22;31430;61.646;24.704;2023-05-14T10:30:59;20.90;51.20
45715;DHT22;31430;61.646;24.704;2023-05-14T10:33:25;20.80;50.80
45715;DHT22;31430;61.646;24.704;2023-05-14T10:36:01;20.80;52.40
45715;DHT22;31430;61.646;24.704;2023-05-14T10:38:32;20.80;53.70
45715;DHT22;31430;61.646;24.704;2023-05-14T10:41:14;21.00;54.60
45715;DHT22;31430;61.646;24.704;2023-05-14T10:43:42;21.60;52.00
45715;DHT22;31430;61.646;24.704;2023-05-14T10:46:10;21.90;49.40
45715;DHT22;31430;61.646;24.704;2023-05-14T10:48:38;21.80;50.10
45715;DHT22;31430;61.646;24.704;2023-05-14T10:51:06;21.80;52.70
45715;DHT22;31430;61.646;24.704;2023-05-14T10:53:35;22.20;49.10
45715;DHT22;31430;61.646;24.704;2023-05-14T10:56:07;22.70;48.80
45715;DHT22;31430;61.646;24.704;2023-05-14T10:58:41;23.00;45.40
45715;DHT22;31430;61.646;24.704;2023-05-14T11:01:09;23.40;46.50
45715;DHT22;31430;61.646;24.704;2023-05-14T11:03:53;23.90;44.10
45715;DHT22;31430;61.646;24.704;2023-05-14T11:06:22;23.80;46.80
45715;DHT22;31430;61.646;24.704;2023-05-14T11:08:50;23.50;47.40
45715;DHT22;31430;61.646;24.704;2023-05-14T11:11:15;23.20;49.00
45715;DHT22;31430;61.646;24.704;2023-05-14T11:13:43;23.20;47.10
45715;DHT22;31430;61.646;24.704;2023-05-14T11:16:09;23.00;45.00
45715;DHT22;31430;61.646;24.704;2023-05-14T11:18:35;22.90;47.30
45715;DHT22;31430;61.646;24.704;2023-05-14T11:21:06;23.00;47.80
45715;DHT22;31430;61.646;24.704;2023-05-14T11:23:31;23.10;48.40
45715;DHT22;31430;61.646;24.704;2023-05-14T11:25:57;23.20;48.40
45715;DHT22;31430;61.646;24.704;2023-05-14T11:28:24;22.70;51.00
45715;DHT22;31430;61.646;24.704;2023-05-14T11:30:51;22.50;50.10
45715;DHT22;31430;61.646;24.704;2023-05-14T11:33:18;22.60;50.80
45715;DHT22;31430;61.646;24.704;2023-05-14T11:35:44;22.30;54.70
45715;DHT22;31430;61.646;24.704;2023-05-14T11:38:18;21.80;59.00
45715;DHT22;31430;61.646;24.704;2023-05-14T11:40:51;21.80;56.50
45715;DHT22;31430;61.646;24.704;2023-05-14T11:43:17;21.80;52.90
45715;DHT22;31430;61.646;24.704;2023-05-14T11:45:51;21.70;53.90
45715;DHT22;31430;61.646;24.704;2023-05-14T11:48:18;22.00;52.20
45715;DHT22;31430;61.646;24.704;2023-05-14T11:50:48;21.70;59.40
45715;DHT22;31430;61.646;24.704;2023-05-14T11:53:19;21.60;54.00
45715;DHT22;31430;61.646;24.704;2023-05-14T11:55:45;21.70;53.30
45715;DHT22;31430;61.646;24.704;2023-05-14T11:58:12;21.40;58.50
45715;DHT22;31430;61.646;24.704;2023-05-14T12:00:38;21.40;54.60
45715;DHT22;31430;61.646;24.704;2023-05-14T12:03:05;21.30;53.40
45715;DHT22;31430;61.646;24.704;2023-05-14T12:05:30;21.50;53.00
45715;DHT22;31430;61.646;24.704;2023-05-14T12:07:56;21.50;52.20
45715;DHT22;31430;61.646;24.704;2023-05-14T12:10:22;21.70;50.90
45715;DHT22;31430;61.646;24.704;2023-05-14T12:12:48;21.90;51.40
45715;DHT22;31430;61.646;24.704;2023-05-14T12:15:14;22.10;51.30
45715;DHT22;31430;61.646;24.704;2023-05-14T12:17:41;21.80;49.80
45715;DHT22;31430;61.646;24.704;2023-05-14T12:20:08;21.50;50.20
45715;DHT22;31430;61.646;24.704;2023-05-14T12:22:37;21.50;50.70
45715;DHT22;31430;61.646;24.704;2023-05-14T12:25:03;21.60;49.60
45715;DHT22;31430;61.646;24.704;2023-05-14T12:27:29;21.70;51.80
45715;DHT22;31430;61.646;24.704;2023-05-14T12:30:02;21.70;52.30
45715;DHT22;31430;61.646;24.704;2023-05-14T12:32:32;21.70;51.80
45715;DHT22;31430;61.646;24.704;2023-05-14T12:34:58;21.40;51.20
45715;DHT22;31430;61.646;24.704;2023-05-14T12:37:25;21.10;52.50
45715;DHT22;31430;61.646;24.704;2023-05-14T12:39:51;21.00;50.40
45715;DHT22;31430;61.646;24.704;2023-05-14T12:42:17;20.90;51.90
45715;DHT22;31430;61.646;24.704;2023-05-14T12:44:43;20.80;52.10
45715;DHT22;31430;61.646;24.704;2023-05-14T12:47:08;21.00;53.70
45715;DHT22;31430;61.646;24.704;2023-05-14T12:49:34;21.30;53.10
45715;DHT22;31430;61.646;24.704;2023-05-14T12:52:00;21.60;52.30
45715;DHT22;31430;61.646;24.704;2023-05-14T12:54:26;21.60;52.80
45715;DHT22;31430;61.646;24.704;2023-05-14T12:56:52;21.50;50.80
45715;DHT22;31430;61.646;24.704;2023-05-14T12:59:17;21.50;52.60
45715;DHT22;31430;61.646;24.704;2023-05-14T13:01:43;21.60;53.40
45715;DHT22;31430;61.646;24.704;2023-05-14T13:04:09;21.40;53.10
45715;DHT22;31430;61.646;24.704;2023-05-14T13:06:39;21.20;54.80
45715;DHT22;31430;61.646;24.704;2023-05-14T13:09:05;21.30;55.90
45715;DHT22;31430;61.646;24.704;2023-05-14T13:11:32;21.30;56.40
45715;DHT22;31430;61.646;24.704;2023-05-14T13:13:58;21.20;56.20
45715;DHT22;31430;61.646;24.704;2023-05-14T13:16:27;21.20;54.90
45715;DHT22;31430;61.646;24.704;2023-05-14T13:18:54;21.00;56.70
45715;DHT22;31430;61.646;24.704;2023-05-14T13:21:19;20.80;55.90
45715;DHT22;31430;61.646;24.704;2023-05-14T13:23:46;20.50;57.00
45715;DHT22;31430;61.646;24.704;2023-05-14T13:26:12;20.50;56.80
45715;DHT22;31430;61.646;24.704;2023-05-14T13:28:38;20.60;56.60
45715;DHT22;31430;61.646;24.704;2023-05-14T13:31:11;20.60;56.00
45715;DHT22;31430;61.646;24.704;2023-05-14T13:33:40;20.80;56.00
45715;DHT22;31430;61.646;24.704;2023-05-14T13:36:06;20.80;55.00
45715;DHT22;31430;61.646;24.704;2023-05-14T13:38:33;20.90;55.10
45715;DHT22;31430;61.646;24.704;2023-05-14T13:40:58;21.60;55.50
45715;DHT22;31430;61.646;24.704;2023-05-14T13:43:32;21.50;54.60
45715;DHT22;31430;61.646;24.704;2023-05-14T13:45:58;21.70;55.90
45715;DHT22;31430;61.646;24.704;2023-05-14T13:48:24;21.50;53.80
45715;DHT22;31430;61.646;24.704;2023-05-14T13:50:50;21.60;55.60
45715;DHT22;31430;61.646;24.704;2023-05-14T13:53:17;21.70;53.50
45715;DHT22;31430;61.646;24.704;2023-05-14T13:55:43;22.00;54.50
45715;DHT22;31430;61.646;24.704;2023-05-14T13:58:09;22.60;52.70
45715;DHT22;31430;61.646;24.704;2023-05-14T14:00:35;22.70;52.10
45715;DHT22;31430;61.646;24.704;2023-05-14T14:03:00;23.10;51.60
45715;DHT22;31430;61.646;24.704;2023-05-14T14:05:26;23.00;51.20
45715;DHT22;31430;61.646;24.704;2023-05-14T14:07:56;23.30;51.80
45715;DHT22;31430;61.646;24.704;2023-05-14T14:10:22;23.00;52.30
45715;DHT22;31430;61.646;24.704;2023-05-14T14:12:48;22.60;52.10
45715;DHT22;31430;61.646;24.704;2023-05-14T14:15:14;22.70;52.40
45715;DHT22;31430;61.646;24.704;2023-05-14T14:17:39;23.00;52.60
45715;DHT22;31430;61.646;24.704;2023-05-14T14:20:09;23.10;52.40
45715;DHT22;31430;61.646;24.704;2023-05-14T14:22:35;22.80;51.50
45715;DHT22;31430;61.646;24.704;2023-05-14T14:25:01;23.20;51.70
45715;DHT22;31430;61.646;24.704;2023-05-14T14:27:28;22.80;50.10
45715;DHT22;31430;61.646;24.704;2023-05-14T14:29:56;22.80;50.10
45715;DHT22;31430;61.646;24.704;2023-05-14T14:32:22;22.80;50.90
45715;DHT22;31430;61.646;24.704;2023-05-14T14:34:48;23.00;50.70
45715;DHT22;31430;61.646;24.704;2023-05-14T14:37:13;23.10;49.20
45715;DHT22;31430;61.646;24.704;2023-05-14T14:39:39;22.90;49.60
45715;DHT22;31430;61.646;24.704;2023-05-14T14:42:05;22.30;50.50
45715;DHT22;31430;61.646;24.704;2023-05-14T14:44:31;22.20;51.90
45715;DHT22;31430;61.646;24.704;2023-05-14T14:46:57;21.70;51.60
45715;DHT22;31430;61.646;24.704;2023-05-14T14:49:23;21.80;52.10
45715;DHT22;31430;61.646;24.704;2023-05-14T14:51:48;22.30;51.10
45715;DHT22;31430;61.646;24.704;2023-05-14T14:54:14;22.40;51.10
45715;DHT22;31430;61.646;24.704;2023-05-14T14:56:40;22.80;49.90
45715;DHT22;31430;61.646;24.704;2023-05-14T14:59:07;23.00;50.50
45715;DHT22;31430;61.646;24.704;2023-05-14T15:01:33;22.50;50.90
45715;DHT22;31430;61.646;24.704;2023-05-14T15:03:59;22.30;51.00
45715;DHT22;31430;61.646;24.704;2023-05-14T15:06:24;22.30;51.60
45715;DHT22;31430;61.646;24.704;2023-05-14T15:08:50;22.70;51.00
45715;DHT22;31430;61.646;24.704;2023-05-14T15:11:16;21.80;52.90
45715;DHT22;31430;61.646;24.704;2023-05-14T15:13:41;21.00;52.80
45715;DHT22;31430;61.646;24.704;2023-05-14T15:16:07;21.00;53.40
45715;DHT22;31430;61.646;24.704;2023-05-14T15:18:33;21.10;53.40
45715;DHT22;31430;61.646;24.704;2023-05-14T15:20:58;21.30;52.50
45715;DHT22;31430;61.646;24.704;2023-05-14T15:23:24;21.40;53.50
45715;DHT22;31430;61.646;24.704;2023-05-14T15:25:50;21.60;52.10
45715;DHT22;31430;61.646;24.704;2023-05-14T15:28:16;21.90;52.40
45715;DHT22;31430;61.646;24.704;2023-05-14T15:30:41;21.80;53.00
45715;DHT22;31430;61.646;24.704;2023-05-14T15:33:07;21.30;54.40